Time;durP1;ratioP1;P1;durP2;ratioP2;P2;SDS_P1;SDS_P2;PMS_P1;PMS_P2;Temp;Humidity;BMP_temperature;BMP_pressure;BME280_temperature;BME280_humidity;BME280_pressure;Samples;Min_cycle;Max_cycle;Signal;HPM_P1;HPM_P2
2022/03/22 00:00:22;;;;;;;22.30;9.73;;;;;;;1.41;75.20;100460.56;5048779;28;20048;-81
2022/03/22 00:02:49;;;;;;;24.95;9.50;;;;;;;1.40;76.15;100464.22;5046699;28;20139;-81
2022/03/22 00:05:16;;;;;;;14.48;8.80;;;;;;;1.28;75.78;100450.72;5058678;28;20079;-81
2022/03/22 00:07:43;;;;;;;18.83;9.23;;;;;;;1.18;75.77;100462.00;5069629;28;20420;-81
2022/03/22 00:10:14;;;;;;;15.52;9.45;;;;;;;0.99;75.25;100435.44;5070227;28;20043;-80
2022/03/22 00:12:40;;;;;;;19.25;10.13;;;;;;;1.06;74.65;100444.84;5069715;28;20056;-81
2022/03/22 00:15:08;;;;;;;17.88;9.90;;;;;;;0.99;75.32;100438.13;5072957;28;20044;-81
2022/03/22 00:17:39;;;;;;;19.63;9.98;;;;;;;0.97;76.90;100460.63;5071555;28;20946;-81
2022/03/22 00:20:10;;;;;;;21.88;8.63;;;;;;;1.06;75.20;100462.75;5051151;28;20056;-81
2022/03/22 00:22:36;;;;;;;15.65;8.85;;;;;;;1.08;76.34;100458.16;5068489;28;20056;-81
2022/03/22 00:25:03;;;;;;;15.75;8.43;;;;;;;1.06;75.88;100449.34;5051702;28;20439;-81
2022/03/22 00:27:50;;;;;;;13.73;8.55;;;;;;;1.12;76.16;100448.97;5065273;28;20045;-81
2022/03/22 00:30:17;;;;;;;18.30;9.48;;;;;;;1.12;76.71;100450.81;5069545;28;20127;-81
2022/03/22 00:32:44;;;;;;;16.13;9.57;;;;;;;0.99;76.81;100445.31;5070121;28;20048;-81
2022/03/22 00:35:11;;;;;;;22.55;10.60;;;;;;;0.92;76.71;100441.28;5052035;28;20045;-81
2022/03/22 00:37:40;;;;;;;20.48;8.68;;;;;;;0.94;77.87;100458.13;5070574;28;20059;-81
2022/03/22 00:40:09;;;;;;;19.35;9.60;;;;;;;0.83;78.65;100462.31;5052937;28;20131;-82
2022/03/22 00:42:36;;;;;;;23.17;9.88;;;;;;;0.71;79.02;100455.00;5049472;28;20099;-81
2022/03/22 00:45:02;;;;;;;17.75;9.93;;;;;;;0.72;79.51;100455.84;5065574;28;20049;-82
2022/03/22 00:47:30;;;;;;;17.70;9.23;;;;;;;0.66;79.88;100449.91;5070315;28;20044;-81
2022/03/22 00:49:57;;;;;;;19.15;10.30;;;;;;;0.76;79.08;100446.69;5065944;28;20080;-81
2022/03/22 00:52:25;;;;;;;17.52;9.73;;;;;;;0.74;80.00;100448.56;5070674;28;20384;-81
2022/03/22 00:54:52;;;;;;;20.30;10.20;;;;;;;0.81;79.21;100449.94;5068080;28;20086;-81
2022/03/22 00:57:19;;;;;;;20.50;9.63;;;;;;;0.81;78.71;100447.28;5070294;28;20045;-81
2022/03/22 01:00:05;;;;;;;20.55;9.52;;;;;;;0.83;79.14;100446.22;5070480;28;20044;-82
2022/03/22 01:02:34;;;;;;;18.50;9.88;;;;;;;0.65;80.41;100434.81;5066651;28;20045;-81
2022/03/22 01:05:03;;;;;;;16.92;9.77;;;;;;;0.78;80.49;100450.97;5068547;28;20052;-82
2022/03/22 01:07:30;;;;;;;20.48;9.95;;;;;;;0.59;82.34;100431.59;5072615;28;20044;-81
2022/03/22 01:09:57;;;;;;;18.30;10.23;;;;;;;0.61;83.25;100451.13;5061098;28;20049;-81
2022/03/22 01:12:23;;;;;;;17.77;9.02;;;;;;;0.45;84.28;100443.13;5053715;28;20048;-81
2022/03/22 01:14:50;;;;;;;16.95;8.75;;;;;;;0.46;85.23;100443.03;5065186;28;20075;-82
2022/03/22 01:17:17;;;;;;;18.67;8.82;;;;;;;0.42;85.08;100428.13;5072720;28;20068;-81
2022/03/22 01:19:44;;;;;;;15.07;8.45;;;;;;;0.47;84.67;100451.94;5072443;28;20048;-82
2022/03/22 01:22:15;;;;;;;19.55;8.63;;;;;;;0.46;84.65;100444.84;5073048;28;20052;-81
2022/03/22 01:24:43;;;;;;;14.60;9.13;;;;;;;0.30;85.27;100436.84;5086957;28;20052;-82
2022/03/22 01:27:10;;;;;;;19.10;8.80;;;;;;;0.16;87.83;100430.47;5094025;28;20423;-82
2022/03/22 01:29:37;;;;;;;14.88;8.52;;;;;;;0.26;87.99;100430.81;5077152;28;20048;-82
2022/03/22 01:32:05;;;;;;;22.57;9.83;;;;;;;0.17;88.05;100426.00;5054463;28;20045;-82
2022/03/22 01:34:31;;;;;;;15.80;9.60;;;;;;;0.10;88.51;100437.97;5070966;28;20045;-81
2022/03/22 01:36:58;;;;;;;18.10;10.10;;;;;;;0.01;88.77;100426.00;5075100;28;20047;-81
2022/03/22 01:39:26;;;;;;;16.13;9.85;;;;;;;0.07;88.65;100436.34;5087381;28;20060;-82
2022/03/22 01:41:52;;;;;;;17.37;10.03;;;;;;;0.21;88.04;100432.91;5073376;28;20109;-81
2022/03/22 01:44:19;;;;;;;19.20;9.05;;;;;;;0.13;89.67;100438.66;5068658;28;20519;-81
2022/03/22 01:46:46;;;;;;;17.83;9.90;;;;;;;0.08;90.49;100430.03;5072497;28;20049;-82
2022/03/22 01:49:13;;;;;;;21.02;8.93;;;;;;;0.02;89.55;100419.69;5085959;28;20056;-81
2022/03/22 01:51:41;;;;;;;15.50;9.03;;;;;;;0.12;89.38;100438.75;5065296;28;20044;-82
2022/03/22 01:54:08;;;;;;;18.33;9.60;;;;;;;-0.03;89.29;100424.44;5063486;28;20078;-82
2022/03/22 01:56:37;;;;;;;14.73;8.80;;;;;;;-0.04;89.28;100434.28;5069473;28;20063;-81
2022/03/22 01:59:04;;;;;;;16.63;9.17;;;;;;;-0.15;89.91;100427.78;5072990;28;20084;-82
2022/03/22 02:07:00;;;;;;;17.23;9.37;;;;;;;-0.13;87.95;100413.41;5071902;28;20142;-82
2022/03/22 02:09:27;;;;;;;18.50;9.80;;;;;;;-0.20;89.35;100420.03;5071709;28;20484;-82
2022/03/22 02:11:55;;;;;;;19.40;9.30;;;;;;;-0.41;90.76;100390.88;5072859;28;20492;-82
2022/03/22 02:14:22;;;;;;;15.93;8.83;;;;;;;-0.35;91.59;100424.41;5071370;28;20537;-82
2022/03/22 02:16:48;;;;;;;14.70;9.00;;;;;;;-0.41;90.25;100417.59;5054376;28;20694;-82
2022/03/22 02:19:15;;;;;;;15.63;9.13;;;;;;;-0.39;90.73;100421.06;5072190;28;20056;-82
2022/03/22 02:21:43;;;;;;;15.57;8.87;;;;;;;-0.38;91.64;100414.78;5072304;28;20055;-82
2022/03/22 02:24:11;;;;;;;15.13;8.53;;;;;;;-0.20;90.04;100414.69;5071224;28;20036;-82
2022/03/22 02:26:38;;;;;;;16.53;8.93;;;;;;;-0.37;90.06;100397.78;5069901;28;20407;-82
2022/03/22 02:29:06;;;;;;;18.43;9.10;;;;;;;-0.33;90.46;100408.28;5072093;28;20076;-82
2022/03/22 02:31:33;;;;;;;17.43;9.50;;;;;;;-0.31;89.90;100411.75;5060809;28;20049;-82
2022/03/22 02:34:00;;;;;;;16.20;9.00;;;;;;;-0.36;90.46;100410.19;5071859;28;20048;-82
2022/03/22 02:36:27;;;;;;;17.93;9.00;;;;;;;-0.32;90.05;100426.06;5072180;28;20064;-83
2022/03/22 02:38:54;;;;;;;16.73;8.77;;;;;;;-0.46;nan;100411.66;5072342;28;20139;-83
2022/03/22 02:41:24;;;;;;;15.13;9.00;;;;;;;-0.43;89.12;100415.97;5067050;28;20636;-82
2022/03/22 02:43:52;;;;;;;18.13;9.30;;;;;;;-0.51;91.14;100427.06;5072098;28;20049;-82
2022/03/22 02:46:19;;;;;;;14.17;8.77;;;;;;;-0.51;89.83;100403.03;5058981;28;20081;-81
2022/03/22 02:48:46;;;;;;;14.00;7.90;;;;;;;-0.54;91.21;100401.38;5075446;28;20462;-82
2022/03/22 02:51:13;;;;;;;17.17;8.90;;;;;;;-0.66;91.48;100407.41;5071603;28;20499;-82
2022/03/22 02:53:39;;;;;;;16.17;8.40;;;;;;;-0.75;92.68;100413.25;5071168;28;20050;-82
2022/03/22 02:56:06;;;;;;;16.17;9.20;;;;;;;-0.66;92.03;100419.88;5061286;28;20081;-82
2022/03/22 02:58:34;;;;;;;14.87;8.97;;;;;;;-0.74;91.96;100414.94;5052343;28;20060;-82
2022/03/22 03:01:02;;;;;;;13.53;8.23;;;;;;;-0.64;91.89;100421.53;5060411;28;20049;-82
2022/03/22 03:03:28;;;;;;;19.87;8.43;;;;;;;-0.63;91.03;100411.69;5081923;28;20466;-82
2022/03/22 03:05:55;;;;;;;15.10;8.57;;;;;;;-0.78;92.91;100392.88;5065485;28;20480;-82
2022/03/22 03:08:26;;;;;;;16.73;8.93;;;;;;;-0.69;92.30;100410.22;5091583;28;20048;-82
2022/03/22 03:10:53;;;;;;;26.57;8.67;;;;;;;-0.60;91.66;100411.56;5083458;28;20091;-81
2022/03/22 03:13:20;;;;;;;14.73;7.97;;;;;;;-0.61;90.95;100399.13;5071036;28;20041;-81
2022/03/22 03:15:50;;;;;;;17.33;8.50;;;;;;;-0.66;91.20;100425.22;5070953;28;20051;-81
2022/03/22 03:18:17;;;;;;;16.40;9.00;;;;;;;-0.95;93.50;100407.16;5071241;28;20048;-81
2022/03/22 03:20:44;;;;;;;16.73;8.20;;;;;;;-0.81;93.33;100418.88;5069692;28;20040;-81
2022/03/22 03:23:11;;;;;;;19.07;8.23;;;;;;;-0.74;92.47;100410.47;5070905;28;20701;-81
2022/03/22 03:25:38;;;;;;;19.97;9.03;;;;;;;-0.67;93.58;100420.84;5071079;28;20051;-81
2022/03/22 03:28:05;;;;;;;17.43;8.77;;;;;;;-0.77;93.23;100434.69;5071498;28;20051;-81
2022/03/22 03:30:32;;;;;;;17.33;8.97;;;;;;;-0.80;94.59;100428.63;5070127;28;20423;-81
2022/03/22 03:33:00;;;;;;;20.67;8.70;;;;;;;-0.77;93.42;100424.00;5072936;28;20074;-81
2022/03/22 03:35:26;;;;;;;16.13;7.77;;;;;;;-0.67;92.12;100432.38;5075669;28;20049;-81
2022/03/22 03:37:53;;;;;;;13.70;8.57;;;;;;;-0.78;92.94;100442.78;5069718;28;20055;-81
2022/03/22 03:40:20;;;;;;;12.90;7.97;;;;;;;-0.94;92.65;100440.88;5071014;28;20048;-81
2022/03/22 03:42:45;;;;;;;19.20;8.80;;;;;;;-0.99;93.60;100434.94;5069806;28;20049;-81
2022/03/22 03:47:58;;;;;;;16.23;8.23;;;;;;;-0.98;93.88;100442.00;5060782;28;20059;-81
2022/03/22 03:50:27;;;;;;;14.40;7.93;;;;;;;-0.93;92.96;100452.44;5070604;28;20124;-81
2022/03/22 03:52:54;;;;;;;15.23;7.97;;;;;;;-0.91;91.70;100437.19;5068976;28;20060;-81
2022/03/22 03:55:20;;;;;;;16.23;9.53;;;;;;;-1.04;92.17;100430.78;5071006;28;20048;-81
2022/03/22 03:57:48;;;;;;;15.03;7.67;;;;;;;-1.14;93.86;100433.94;5058882;28;20385;-81
2022/03/22 04:00:16;;;;;;;13.50;8.17;;;;;;;-1.29;93.90;100422.22;5071013;28;20056;-81
2022/03/22 04:02:43;;;;;;;17.07;9.23;;;;;;;-1.22;94.67;100440.59;5061106;28;20060;-81
2022/03/22 04:05:10;;;;;;;17.13;8.47;;;;;;;-1.20;94.82;100446.72;5071349;28;20040;-81
2022/03/22 04:07:38;;;;;;;18.20;9.30;;;;;;;-1.14;94.98;100455.28;5054664;28;20416;-82
2022/03/22 04:10:06;;;;;;;22.47;9.37;;;;;;;-1.22;95.96;100451.25;5070496;28;20072;-81
2022/03/22 04:12:34;;;;;;;15.63;9.00;;;;;;;-1.30;94.82;100435.66;5070212;28;20412;-81
2022/03/22 04:15:00;;;;;;;14.93;8.07;;;;;;;-1.14;95.10;100454.41;5070962;28;20048;-81
2022/03/22 04:17:27;;;;;;;25.03;9.20;;;;;;;-1.23;94.86;100438.84;5070405;28;20044;-81
2022/03/22 04:19:54;;;;;;;13.57;8.10;;;;;;;-1.22;95.06;100452.13;5070377;28;20053;-81
2022/03/22 04:22:23;;;;;;;15.53;8.07;;;;;;;-1.21;94.72;100448.50;5069430;28;20098;-81
2022/03/22 04:24:52;;;;;;;15.98;8.60;;;;;;;-1.27;94.97;100451.50;5069276;28;20484;-81
2022/03/22 04:32:46;;;;;;;21.33;9.30;;;;;;;-1.26;96.59;100454.09;5056745;28;20060;-81
2022/03/22 04:35:17;;;;;;;19.47;9.83;;;;;;;-1.20;96.72;100460.94;5070064;28;20048;-81
2022/03/22 04:37:44;;;;;;;17.27;9.23;;;;;;;-1.36;97.61;100462.66;5070365;28;20067;-80
2022/03/22 04:40:14;;;;;;;16.60;8.77;;;;;;;-1.35;98.26;100467.91;5072498;28;20476;-81
2022/03/22 04:42:40;;;;;;;17.52;8.20;;;;;;;-1.40;97.96;100451.28;5075714;28;20114;-81
2022/03/22 04:45:08;;;;;;;19.23;8.97;;;;;;;-1.28;97.36;100468.44;5075985;28;20041;-81
2022/03/22 04:47:35;;;;;;;16.70;9.00;;;;;;;-1.31;98.04;100471.25;5076366;28;20044;-81
2022/03/22 04:50:02;;;;;;;16.53;9.03;;;;;;;-1.37;97.14;100455.56;5074990;28;20049;-81
2022/03/22 04:57:57;;;;;;;15.10;8.20;;;;;;;-1.39;96.69;100470.81;5077124;28;20055;-81
2022/03/22 05:00:24;;;;;;;14.20;8.70;;;;;;;-1.38;97.46;100475.22;5071710;28;20041;-81
2022/03/22 05:02:50;;;;;;;19.77;9.77;;;;;;;-1.62;96.98;100459.47;5053225;28;20060;-81
2022/03/22 05:06:25;;;;;;;22.83;10.40;;;;;;;-1.46;97.17;100464.88;5070645;28;20139;-81
2022/03/22 05:08:05;;;;;;;12.17;7.53;;;;;;;-1.41;96.97;100476.22;5073900;28;20136;-81
2022/03/22 05:10:33;;;;;;;21.10;10.03;;;;;;;-1.50;96.00;100474.00;5069945;28;20041;-80
2022/03/22 05:13:00;;;;;;;16.83;8.60;;;;;;;-1.46;95.47;100480.91;5061191;28;20106;-80
2022/03/22 05:15:27;;;;;;;17.83;9.87;;;;;;;-1.54;96.68;100493.75;5081081;28;20056;-79
2022/03/22 05:17:54;;;;;;;20.23;10.77;;;;;;;-1.58;96.65;100493.06;5075831;28;20048;-80
2022/03/22 05:20:24;;;;;;;20.57;9.83;;;;;;;-1.48;96.89;100493.47;5074015;28;20045;-80
2022/03/22 05:22:51;;;;;;;;;;;;;;;-1.52;97.59;100491.88;5073592;28;20399;-80
2022/03/22 05:25:18;;;;;;;19.57;8.13;;;;;;;-1.56;96.20;100483.16;5073471;28;19924;-80
2022/03/22 05:27:46;;;;;;;18.47;9.07;;;;;;;-1.64;97.36;100499.53;5079770;28;20549;-80
2022/03/22 05:30:13;;;;;;;15.00;8.47;;;;;;;-1.70;97.64;100498.97;5073361;28;20044;-81
2022/03/22 05:32:40;;;;;;;23.70;8.93;;;;;;;-1.80;97.96;100486.06;5069774;28;20045;-80
2022/03/22 05:35:07;;;;;;;17.43;9.30;;;;;;;-1.81;98.47;100505.69;5073307;28;20045;-80
2022/03/22 05:37:34;;;;;;;21.37;9.77;;;;;;;-1.94;98.86;100485.88;5070281;28;20051;-81
2022/03/22 05:40:01;;;;;;;17.60;9.57;;;;;;;-1.92;99.36;100478.66;5073891;28;20049;-81
2022/03/22 05:42:27;;;;;;;16.70;9.50;;;;;;;-1.90;99.57;100505.25;5086245;28;20058;-79
2022/03/22 05:44:55;;;;;;;19.10;9.17;;;;;;;-1.72;98.58;100504.38;5072776;28;20041;-80
2022/03/22 05:47:21;;;;;;;17.00;8.60;;;;;;;-1.66;98.28;100498.72;5069930;28;20056;-80
2022/03/22 05:49:48;;;;;;;20.20;9.43;;;;;;;-1.59;97.12;100499.31;5078310;28;20048;-80
2022/03/22 05:52:14;;;;;;;18.03;8.30;;;;;;;-1.55;97.09;100505.34;5060327;28;20049;-80
2022/03/22 05:54:41;;;;;;;17.00;8.97;;;;;;;-1.50;98.06;100493.53;5057596;28;20048;-80
2022/03/22 05:57:07;;;;;;;18.77;9.10;;;;;;;-1.37;97.30;100498.25;5062035;28;20048;-80
2022/03/22 05:59:34;;;;;;;18.10;8.63;;;;;;;-1.52;97.20;100483.88;5067222;28;20432;-80
2022/03/22 06:02:02;;;;;;;16.10;8.30;;;;;;;-1.28;97.37;100508.47;5067786;28;20079;-80
2022/03/22 06:04:28;;;;;;;22.83;10.43;;;;;;;-1.32;97.54;100489.09;5068932;28;20045;-80
2022/03/22 06:06:55;;;;;;;24.80;12.63;;;;;;;-1.22;98.72;100504.63;5064158;28;20048;-80
2022/03/22 06:09:21;;;;;;;21.77;10.20;;;;;;;-1.13;98.42;100505.06;5075251;28;20044;-80
2022/03/22 06:11:48;;;;;;;17.87;9.80;;;;;;;-0.99;97.91;100503.50;5078713;28;20135;-80
2022/03/22 06:14:14;;;;;;;18.77;9.60;;;;;;;-0.58;95.06;100501.31;5073574;28;20060;-80
2022/03/22 06:16:41;;;;;;;24.53;11.17;;;;;;;-0.27;93.00;100499.69;5064468;28;20364;-80
2022/03/22 06:19:09;;;;;;;17.93;9.97;;;;;;;-0.07;91.90;100487.91;5071299;28;20052;-79
2022/03/22 06:21:35;;;;;;;26.17;10.87;;;;;;;0.28;89.76;100492.25;5076597;28;20404;-79
2022/03/22 06:24:01;;;;;;;19.93;10.23;;;;;;;0.37;88.16;100483.69;5069860;28;20044;-80
2022/03/22 06:26:28;;;;;;;22.00;11.03;;;;;;;0.50;87.33;100482.03;5071149;28;20515;-79
2022/03/22 06:29:00;;;;;;;18.37;10.33;;;;;;;0.57;86.70;100482.53;5072206;28;20057;-79
2022/03/22 06:31:27;;;;;;;16.63;9.43;;;;;;;0.66;87.69;100484.72;5074385;28;20049;-79
2022/03/22 06:33:54;;;;;;;17.50;10.50;;;;;;;0.67;86.55;100493.59;5073602;28;20462;-79
2022/03/22 06:36:21;;;;;;;17.97;9.97;;;;;;;0.60;88.56;100493.06;5066516;28;20053;-79
2022/03/22 06:38:48;;;;;;;20.70;10.87;;;;;;;0.46;89.78;100509.91;5058728;28;20106;-78
2022/03/22 06:41:14;;;;;;;19.07;10.53;;;;;;;0.25;91.35;100503.97;5071576;28;20045;-79
2022/03/22 06:43:41;;;;;;;20.77;10.63;;;;;;;0.31;90.94;100494.75;5070529;28;20132;-79
2022/03/22 06:46:07;;;;;;;25.10;11.50;;;;;;;0.63;89.68;100500.94;5076968;28;20131;-79
2022/03/22 06:48:34;;;;;;;27.87;10.77;;;;;;;0.90;88.18;100502.09;5071274;28;20136;-78
2022/03/22 06:51:00;;;;;;;20.90;11.13;;;;;;;1.22;86.44;100494.84;5074226;28;20056;-79
2022/03/22 06:53:28;;;;;;;18.58;9.95;;;;;;;1.63;83.95;100507.53;5078554;28;20041;-79
2022/03/22 06:55:54;;;;;;;22.23;11.25;;;;;;;2.03;81.51;100502.34;5068405;28;20048;-79
2022/03/22 06:58:22;;;;;;;18.27;9.85;;;;;;;2.22;80.82;100490.44;5071317;28;20048;-79
2022/03/22 07:00:49;;;;;;;23.35;10.07;;;;;;;2.44;79.75;100501.50;5063028;28;20047;-79
2022/03/22 07:03:15;;;;;;;19.75;10.75;;;;;;;2.53;79.84;100504.53;5070965;28;20056;-79
2022/03/22 07:05:42;;;;;;;20.48;10.13;;;;;;;2.70;80.01;100500.75;5070559;28;20058;-79
2022/03/22 07:08:09;;;;;;;19.85;10.75;;;;;;;2.80;79.49;100508.09;5069403;28;20044;-79
2022/03/22 07:10:37;;;;;;;15.93;9.45;;;;;;;2.71;81.03;100506.03;5070423;28;20052;-79
2022/03/22 07:13:05;;;;;;;19.80;10.27;;;;;;;2.83;81.01;100499.84;5070980;28;20055;-79
2022/03/22 07:15:35;;;;;;;20.08;10.23;;;;;;;2.94;80.35;100503.63;5070524;28;20083;-79
2022/03/22 07:18:02;;;;;;;17.35;9.70;;;;;;;3.00;79.02;100505.91;5070407;28;20051;-79
2022/03/22 07:20:29;;;;;;;21.50;10.65;;;;;;;3.06;78.37;100508.16;5068007;28;20071;-77
2022/03/22 07:22:56;;;;;;;28.70;10.80;;;;;;;3.26;77.70;100489.81;5071074;28;20044;-77
2022/03/22 07:25:23;;;;;;;19.52;10.88;;;;;;;3.29;77.86;100487.78;5071464;28;20408;-79
2022/03/22 07:27:52;;;;;;;18.90;11.02;;;;;;;3.44;77.24;100493.06;5071549;28;20133;-80
2022/03/22 07:30:18;;;;;;;19.20;9.95;;;;;;;3.61;76.87;100506.19;5072374;28;20048;-78
2022/03/22 07:32:48;;;;;;;21.35;11.50;;;;;;;3.81;74.70;100507.50;5072446;28;20044;-78
2022/03/22 07:35:17;;;;;;;;;;;;;;;3.71;75.16;100503.72;5068702;28;20076;-78
2022/03/22 07:37:44;;;;;;;24.38;10.35;;;;;;;3.48;75.50;100500.81;5071210;28;19927;-79
2022/03/22 07:40:14;;;;;;;20.52;11.35;;;;;;;3.50;75.53;100503.41;5070709;28;20122;-78
2022/03/22 07:42:41;;;;;;;19.92;12.05;;;;;;;3.51;75.15;100502.44;5064970;28;21066;-80
2022/03/22 07:45:11;;;;;;;25.98;11.90;;;;;;;3.54;74.48;100503.06;5070477;28;20040;-80
2022/03/22 07:47:37;;;;;;;24.48;12.25;;;;;;;3.56;74.23;100492.22;5071411;28;20055;-80
2022/03/22 07:53:07;;;;;;;17.98;10.38;;;;;;;3.95;72.92;100503.81;5068459;28;20056;-79
2022/03/22 07:55:36;;;;;;;18.42;11.15;;;;;;;4.18;72.65;100512.91;5070729;28;20048;-80
2022/03/22 07:58:05;;;;;;;18.23;11.02;;;;;;;4.20;73.27;100499.34;5071240;28;20082;-80
2022/03/22 08:00:35;;;;;;;20.97;10.83;;;;;;;4.40;71.69;100506.00;5057917;28;20053;-79
2022/03/22 08:03:04;;;;;;;22.15;9.73;;;;;;;4.46;72.07;100501.97;5050537;28;20374;-79
2022/03/22 08:05:31;;;;;;;21.42;10.75;;;;;;;4.60;71.97;100513.44;5062646;28;20060;-80
2022/03/22 08:07:59;;;;;;;22.73;11.55;;;;;;;4.53;72.99;100509.50;5070461;28;20055;-79
2022/03/22 08:10:26;;;;;;;16.83;9.45;;;;;;;4.63;71.92;100503.44;5067745;28;20048;-80
2022/03/22 08:12:53;;;;;;;18.02;9.60;;;;;;;4.71;70.37;100512.66;5069392;28;20553;-80
2022/03/22 08:15:20;;;;;;;32.58;12.85;;;;;;;4.89;70.13;100513.13;5065833;28;20075;-80
2022/03/22 08:17:48;;;;;;;27.15;11.07;;;;;;;4.99;69.96;100498.97;5070538;28;20049;-79
2022/03/22 08:20:15;;;;;;;19.02;10.43;;;;;;;5.22;68.54;100511.53;5070335;28;20165;-80
2022/03/22 08:22:50;;;;;;;19.65;10.77;;;;;;;5.41;67.41;100508.28;5069938;28;20049;-80
2022/03/22 08:25:18;;;;;;;22.20;11.65;;;;;;;5.54;67.27;100505.50;5069884;28;20092;-80
2022/03/22 08:27:46;;;;;;;22.77;10.30;;;;;;;5.64;65.80;100508.31;5069323;28;20449;-80
2022/03/22 08:30:13;;;;;;;21.58;10.68;;;;;;;5.79;64.68;100509.81;5064391;28;20512;-80
2022/03/22 08:32:41;;;;;;;23.10;10.45;;;;;;;5.88;64.19;100510.94;5049864;28;20049;-79
2022/03/22 08:35:10;;;;;;;24.27;10.93;;;;;;;5.98;63.51;100505.69;5055111;28;20496;-80
2022/03/22 08:37:36;;;;;;;16.42;9.27;;;;;;;6.03;63.04;100508.88;5068863;28;20044;-80
2022/03/22 08:40:04;;;;;;;27.30;8.95;;;;;;;6.25;64.01;100510.72;5069751;28;20040;-80
2022/03/22 08:42:31;;;;;;;14.57;8.23;;;;;;;6.48;58.29;100500.72;5069593;28;20109;-80
2022/03/22 08:44:59;;;;;;;16.77;7.80;;;;;;;6.78;56.12;100503.75;5067076;28;20098;-79
2022/03/22 08:47:26;;;;;;;16.00;6.88;;;;;;;6.95;53.82;100495.06;5062164;28;20053;-80
2022/03/22 08:49:53;;;;;;;13.75;8.02;;;;;;;7.23;53.23;100498.16;5050670;28;20053;-80
2022/03/22 08:52:21;;;;;;;15.48;6.80;;;;;;;7.34;53.15;100495.38;5049947;28;20055;-80
2022/03/22 08:54:47;;;;;;;14.48;9.65;;;;;;;7.48;51.80;100501.44;5049609;28;20056;-79
2022/03/22 08:57:14;;;;;;;11.98;6.88;;;;;;;7.47;50.62;100497.03;5069901;28;20049;-79
2022/03/22 08:59:40;;;;;;;19.80;7.70;;;;;;;7.46;52.92;100482.66;5070299;28;20056;-80
2022/03/22 09:02:07;;;;;;;15.00;7.55;;;;;;;7.55;49.98;100489.13;5065099;28;20514;-79
2022/03/22 09:07:18;;;;;;;20.88;8.40;;;;;;;7.77;52.42;100488.09;5051822;28;20064;-80
2022/03/22 09:09:46;;;;;;;19.98;9.07;;;;;;;7.95;49.72;100486.47;5050218;28;20049;-80
2022/03/22 09:12:12;;;;;;;15.48;7.70;;;;;;;8.13;49.30;100484.00;5050119;28;20396;-80
2022/03/22 09:14:39;;;;;;;15.10;8.07;;;;;;;8.19;48.84;100487.13;5050222;28;20056;-80
2022/03/22 09:17:07;;;;;;;17.63;8.88;;;;;;;8.18;47.89;100486.28;5064898;28;20060;-80
2022/03/22 09:19:36;;;;;;;24.05;8.48;;;;;;;8.25;48.70;100487.47;5069419;28;20041;-80
2022/03/22 09:22:05;;;;;;;14.20;8.35;;;;;;;8.37;47.91;100485.50;5055101;28;20072;-80
2022/03/22 09:24:31;;;;;;;13.90;7.85;;;;;;;8.46;47.70;100492.81;5051415;28;20057;-80
2022/03/22 09:26:59;;;;;;;16.20;8.18;;;;;;;8.49;48.47;100480.81;5068040;28;20049;-80
2022/03/22 09:29:25;;;;;;;18.10;8.90;;;;;;;8.67;48.49;100481.88;5073372;28;20052;-80
2022/03/22 09:31:52;;;;;;;15.70;7.95;;;;;;;8.77;47.82;100473.75;5071466;28;20055;-80
2022/03/22 09:34:19;;;;;;;24.40;9.02;;;;;;;8.90;47.43;100483.47;5072961;28;20063;-80
2022/03/22 09:36:45;;;;;;;15.85;8.15;;;;;;;8.93;46.21;100484.06;5064905;28;20079;-80
2022/03/22 09:39:12;;;;;;;15.75;8.52;;;;;;;9.02;48.21;100474.22;5055751;28;20068;-80
2022/03/22 09:41:39;;;;;;;18.33;9.38;;;;;;;9.19;46.92;100478.91;5072970;28;20045;-80
2022/03/22 09:44:07;;;;;;;14.77;8.93;;;;;;;9.24;47.35;100488.47;5071596;28;20036;-81
2022/03/22 09:46:34;;;;;;;19.88;9.23;;;;;;;9.31;46.10;100470.63;5066296;28;20064;-80
2022/03/22 09:49:00;;;;;;;21.75;9.18;;;;;;;9.35;46.73;100477.47;5067257;28;20048;-80
2022/03/22 09:51:45;;;;;;;19.23;9.40;;;;;;;9.33;47.73;100476.75;5072365;28;20048;-80
2022/03/22 09:54:13;;;;;;;18.40;9.10;;;;;;;9.36;49.32;100473.75;5071849;28;20536;-80
2022/03/22 09:56:39;;;;;;;21.45;10.40;;;;;;;9.49;46.27;100471.56;5066952;28;20094;-80
2022/03/22 09:59:07;;;;;;;19.77;10.15;;;;;;;9.49;46.19;100465.31;5068247;28;20121;-80
2022/03/22 10:01:34;;;;;;;20.73;9.18;;;;;;;9.51;46.62;100475.00;5072867;28;20113;-80
2022/03/22 10:04:02;;;;;;;17.15;8.52;;;;;;;9.59;47.17;100470.69;5072210;28;20045;-80
2022/03/22 10:06:29;;;;;;;20.20;8.93;;;;;;;9.75;46.21;100465.50;5082446;28;20051;-80
2022/03/22 10:08:57;;;;;;;15.05;9.07;;;;;;;9.81;46.47;100464.91;5060851;28;20075;-78
2022/03/22 10:11:35;;;;;;;20.20;8.75;;;;;;;9.83;44.89;100454.78;5073305;28;20057;-79
2022/03/22 10:14:01;;;;;;;17.35;8.98;;;;;;;9.98;46.08;100460.59;5082214;28;20143;-78
2022/03/22 10:16:29;;;;;;;18.40;8.35;;;;;;;9.87;45.48;100456.16;5079347;28;20068;-78
2022/03/22 10:18:56;;;;;;;15.57;8.35;;;;;;;10.04;45.16;100453.66;5085799;28;20051;-78
2022/03/22 10:21:22;;;;;;;20.95;9.68;;;;;;;10.20;45.71;100444.88;5087158;28;20055;-80
2022/03/22 10:23:50;;;;;;;17.85;9.48;;;;;;;10.13;44.42;100435.63;5067495;28;20053;-80
2022/03/22 10:26:17;;;;;;;20.40;9.07;;;;;;;10.33;43.19;100439.97;5068632;28;20083;-79
2022/03/22 10:28:52;;;;;;;17.08;8.68;;;;;;;10.55;43.83;100429.66;5087647;28;20060;-79
2022/03/22 10:31:19;;;;;;;14.43;8.77;;;;;;;10.61;42.69;100431.78;5087791;28;20048;-79
2022/03/22 10:33:51;;;;;;;12.90;7.50;;;;;;;10.49;42.42;100425.69;5078207;28;20055;-80
2022/03/22 10:36:21;;;;;;;14.63;8.00;;;;;;;10.62;44.56;100425.34;5070624;28;20063;-78
2022/03/22 10:38:54;;;;;;;;;;;;;;;10.82;44.47;100430.63;5056548;28;20083;-79
2022/03/22 10:41:25;;;;;;;15.32;7.38;;;;;;;10.83;43.27;100424.19;5053257;28;19997;-79
2022/03/22 10:44:02;;;;;;;18.08;9.00;;;;;;;11.03;45.53;100416.69;5070601;28;20080;-79
2022/03/22 10:46:29;;;;;;;16.10;8.85;;;;;;;11.37;44.27;100421.41;5072692;28;20044;-79
2022/03/22 10:49:03;;;;;;;16.00;8.75;;;;;;;11.53;43.07;100424.19;5070450;28;20052;-79
2022/03/22 10:51:34;;;;;;;15.50;7.88;;;;;;;11.67;43.30;100420.91;5072052;28;20041;-79
2022/03/22 10:54:01;;;;;;;18.17;8.57;;;;;;;11.71;43.57;100418.69;5071615;28;20491;-79
2022/03/22 10:56:27;;;;;;;16.40;8.35;;;;;;;11.81;41.83;100421.31;5072542;28;20045;-79
2022/03/22 10:58:55;;;;;;;13.55;8.10;;;;;;;11.91;44.03;100419.31;5055300;28;20045;-79
2022/03/22 11:01:23;;;;;;;14.43;8.40;;;;;;;11.93;40.64;100413.75;5052549;28;20052;-79
2022/03/22 11:03:50;;;;;;;13.13;7.28;;;;;;;12.05;40.84;100409.72;5055700;28;20075;-79
2022/03/22 11:06:20;;;;;;;14.63;8.75;;;;;;;12.07;40.81;100406.81;5078873;28;20055;-79
2022/03/22 11:08:47;;;;;;;14.40;8.70;;;;;;;12.23;39.94;100415.06;5064391;28;20056;-79
